Time;durP1;ratioP1;P1;durP2;ratioP2;P2;SDS_P1;SDS_P2;PMS_P1;PMS_P2;Temp;Humidity;BMP_temperature;BMP_pressure;BME280_temperature;BME280_humidity;BME280_pressure;Samples;Min_cycle;Max_cycle;Signal;HPM_P1;HPM_P2
2022/10/01 00:01:58;;;;;;;7.35;6.60;;;;;;;9.48;87.35;98405.91;5015757;27;103760;-63
2022/10/01 00:04:27;;;;;;;8.85;7.05;;;;;;;9.36;87.85;98415.53;5016508;27;103231;-64
2022/10/01 00:07:03;;;;;;;8.20;6.68;;;;;;;9.68;87.38;98419.34;5014976;27;102714;-64
2022/10/01 00:09:33;;;;;;;7.10;6.40;;;;;;;9.37;87.79;98419.88;5014224;27;103841;-64
2022/10/01 00:12:01;;;;;;;6.97;6.13;;;;;;;9.69;87.50;98410.47;5015828;27;104232;-63
2022/10/01 00:14:29;;;;;;;6.60;5.93;;;;;;;9.98;85.80;98408.31;4995426;27;104213;-64
2022/10/01 00:16:57;;;;;;;7.30;6.10;;;;;;;10.09;85.35;98396.94;4996886;27;103381;-64
2022/10/01 00:19:25;;;;;;;7.20;6.50;;;;;;;9.94;86.91;98408.66;5015579;27;103288;-63
2022/10/01 00:21:52;;;;;;;6.93;6.23;;;;;;;9.96;86.20;98402.31;5021218;27;104440;-63
2022/10/01 00:24:22;;;;;;;6.47;5.87;;;;;;;10.05;85.88;98395.53;5014133;27;104552;-64
2022/10/01 00:26:50;;;;;;;6.05;5.13;;;;;;;10.08;86.77;98401.38;5018679;27;102642;-64
2022/10/01 00:29:18;;;;;;;6.07;5.55;;;;;;;9.76;87.70;98408.22;4994884;27;105387;-64
2022/10/01 00:31:45;;;;;;;6.18;5.57;;;;;;;9.76;87.59;98401.16;4998716;27;104365;-64
2022/10/01 00:34:13;;;;;;;5.65;4.65;;;;;;;10.07;85.29;98398.88;5012603;27;103472;-64
2022/10/01 00:36:42;;;;;;;5.47;4.97;;;;;;;10.10;86.36;98396.84;5020882;27;103183;-63
2022/10/01 00:39:10;;;;;;;6.10;5.50;;;;;;;9.78;85.87;98398.38;4996041;27;103253;-64
2022/10/01 00:41:39;;;;;;;6.53;5.80;;;;;;;9.31;87.87;98396.59;5014071;27;103357;-63
2022/10/01 00:44:30;;;;;;;6.20;5.63;;;;;;;9.56;89.40;98399.13;5014955;27;103282;-64
2022/10/01 00:47:04;;;;;;;5.83;5.33;;;;;;;9.75;87.68;98399.47;4997615;27;103037;-63
2022/10/01 00:49:36;;;;;;;5.53;5.03;;;;;;;10.00;86.93;98402.91;5017447;27;102822;-63
2022/10/01 00:52:08;;;;;;;5.00;4.60;;;;;;;10.22;86.32;98408.28;5016655;27;103481;-64
2022/10/01 00:54:43;;;;;;;6.43;5.40;;;;;;;10.30;85.42;98421.78;5014509;27;103217;-63
2022/10/01 00:57:16;;;;;;;5.32;4.82;;;;;;;10.34;85.57;98423.22;5017579;27;103567;-64
2022/10/01 00:59:48;;;;;;;4.88;4.47;;;;;;;10.31;85.42;98424.31;5013786;27;102821;-64
2022/10/01 01:02:16;;;;;;;4.60;4.20;;;;;;;10.30;86.35;98417.31;5013144;27;104109;-64
2022/10/01 01:04:44;;;;;;;4.97;4.47;;;;;;;10.40;84.93;98406.91;5027695;27;104252;-65
2022/10/01 01:07:12;;;;;;;5.20;4.70;;;;;;;10.42;83.80;98405.84;5016692;27;102784;-64
2022/10/01 01:09:45;;;;;;;4.47;4.07;;;;;;;10.36;83.88;98402.81;5012238;27;104188;-64
2022/10/01 01:12:27;;;;;;;4.53;4.10;;;;;;;10.35;84.23;98403.78;5019324;27;103353;-64
2022/10/01 01:15:13;;;;;;;4.15;3.75;;;;;;;10.54;83.71;98385.56;5011394;27;103501;-64
2022/10/01 01:17:51;;;;;;;4.37;3.97;;;;;;;10.49;84.17;98398.31;4994129;27;103645;-64
2022/10/01 01:20:36;;;;;;;4.10;3.80;;;;;;;10.58;84.28;98399.41;5010567;27;103775;-64
2022/10/01 01:23:12;;;;;;;3.23;2.93;;;;;;;10.73;84.03;98392.91;5018495;27;103949;-63
2022/10/01 01:25:47;;;;;;;4.28;3.83;;;;;;;10.56;85.75;98396.00;4990052;27;104290;-64
2022/10/01 01:28:24;;;;;;;4.00;3.60;;;;;;;10.52;86.20;98390.16;5013555;27;102780;-64
2022/10/01 01:30:58;;;;;;;4.03;3.72;;;;;;;10.63;86.00;98391.94;5022082;27;104096;-64
2022/10/01 01:33:29;;;;;;;3.67;3.37;;;;;;;10.81;84.90;98386.06;5012887;27;103311;-64
2022/10/01 01:36:03;;;;;;;3.95;3.55;;;;;;;10.86;85.02;98378.63;4993065;27;104350;-64
2022/10/01 01:38:36;;;;;;;3.70;3.40;;;;;;;10.78;85.80;98370.44;5010668;27;103079;-63
2022/10/01 01:41:08;;;;;;;4.60;3.47;;;;;;;10.85;85.15;98366.38;5012175;27;102879;-64
2022/10/01 01:43:40;;;;;;;3.13;2.92;;;;;;;10.90;84.48;98358.94;4993797;27;103018;-63
2022/10/01 01:46:10;;;;;;;3.70;3.10;;;;;;;10.71;86.11;98356.06;5011349;27;103317;-64
2022/10/01 01:48:40;;;;;;;3.63;3.30;;;;;;;10.84;85.29;98356.75;5013851;27;103035;-64
2022/10/01 01:51:14;;;;;;;3.60;3.30;;;;;;;10.65;86.00;98353.88;5016119;27;104179;-63
2022/10/01 01:53:42;;;;;;;4.30;3.70;;;;;;;10.80;84.73;98350.06;5019257;27;103766;-64
2022/10/01 01:56:10;;;;;;;3.88;3.17;;;;;;;10.85;84.45;98350.53;5001957;28;103290;-64
2022/10/01 01:58:40;;;;;;;3.28;2.97;;;;;;;11.07;83.81;98342.56;5001376;28;103301;-63
2022/10/01 02:01:08;;;;;;;3.58;3.28;;;;;;;10.83;84.53;98347.19;5014592;27;102710;-64
2022/10/01 02:03:36;;;;;;;3.90;2.95;;;;;;;10.95;84.27;98340.91;5017907;28;103448;-64
2022/10/01 02:06:15;;;;;;;2.85;2.63;;;;;;;11.01;83.54;98335.13;5015503;27;103265;-64
2022/10/01 02:08:48;;;;;;;3.22;2.92;;;;;;;10.78;84.51;98338.75;5011876;27;102773;-63
2022/10/01 02:11:23;;;;;;;3.60;3.30;;;;;;;10.74;84.46;98342.59;5015620;27;103525;-63
2022/10/01 02:14:03;;;;;;;3.30;3.03;;;;;;;10.72;84.18;98344.50;5011513;27;103299;-63
2022/10/01 02:16:38;;;;;;;3.33;2.90;;;;;;;10.91;84.10;98341.28;5012241;27;103447;-63
2022/10/01 02:19:18;;;;;;;3.50;2.92;;;;;;;11.17;81.92;98340.03;4994660;27;102770;-64
2022/10/01 02:21:56;;;;;;;3.95;3.53;;;;;;;10.85;83.14;98334.69;5015384;27;103834;-64
2022/10/01 02:24:36;;;;;;;3.10;2.80;;;;;;;11.23;82.23;98333.44;5011157;27;105123;-64
2022/10/01 02:27:11;;;;;;;3.60;3.30;;;;;;;11.07;82.03;98331.16;5011981;27;102989;-63
2022/10/01 02:29:43;;;;;;;3.08;2.88;;;;;;;11.09;83.06;98331.06;5012507;27;104019;-63
2022/10/01 02:32:12;;;;;;;3.55;3.25;;;;;;;10.99;82.61;98330.94;5014673;27;102735;-64
2022/10/01 02:34:42;;;;;;;3.63;3.00;;;;;;;11.02;83.07;98331.53;4996514;27;104033;-64
2022/10/01 02:37:11;;;;;;;3.47;3.17;;;;;;;11.37;81.11;98319.91;5011969;27;103658;-64
2022/10/01 02:39:41;;;;;;;2.92;2.63;;;;;;;11.52;80.10;98324.78;5011524;27;102867;-64
2022/10/01 02:42:12;;;;;;;2.70;2.50;;;;;;;11.58;79.93;98323.44;5011892;27;102684;-64
2022/10/01 02:44:45;;;;;;;2.90;2.70;;;;;;;11.53;79.92;98321.19;5019010;27;104338;-63
2022/10/01 02:47:18;;;;;;;4.63;3.10;;;;;;;11.65;79.26;98320.16;5019051;27;103263;-63
2022/10/01 02:49:47;;;;;;;2.88;2.60;;;;;;;11.35;80.10;98324.47;5015581;27;102684;-64
2022/10/01 02:52:26;;;;;;;2.53;2.33;;;;;;;11.66;79.16;98318.38;5003754;27;102736;-63
2022/10/01 02:54:58;;;;;;;2.70;2.50;;;;;;;11.67;78.71;98316.56;5013298;27;104077;-64
2022/10/01 02:57:26;;;;;;;2.92;2.33;;;;;;;11.79;78.19;98311.13;5015656;27;103237;-64
2022/10/01 02:59:58;;;;;;;2.30;2.10;;;;;;;11.84;77.91;98302.81;4996833;27;102835;-64
2022/10/01 03:02:27;;;;;;;2.47;2.05;;;;;;;11.83;78.37;98307.25;5015639;27;104128;-64
2022/10/01 03:04:56;;;;;;;2.80;2.60;;;;;;;11.68;78.08;98321.72;5019064;27;104545;-64
2022/10/01 03:07:27;;;;;;;2.37;2.00;;;;;;;11.73;77.97;98316.94;5015090;27;103186;-64
2022/10/01 03:09:58;;;;;;;2.78;2.30;;;;;;;11.80;78.08;98311.97;5012467;27;102749;-64
2022/10/01 03:12:26;;;;;;;2.45;2.10;;;;;;;11.81;78.09;98308.34;5026997;27;102787;-64
2022/10/01 03:14:57;;;;;;;2.50;2.30;;;;;;;11.80;77.31;98312.81;5017477;27;104595;-64
2022/10/01 03:17:28;;;;;;;2.20;2.00;;;;;;;11.93;76.79;98302.03;5017850;27;103333;-64
2022/10/01 03:19:55;;;;;;;2.20;2.00;;;;;;;11.91;77.13;98304.81;5016026;27;103538;-64
2022/10/01 03:22:23;;;;;;;2.40;2.20;;;;;;;11.82;76.82;98305.56;5016677;27;104197;-64
2022/10/01 03:24:52;;;;;;;2.50;2.30;;;;;;;11.72;77.54;98302.00;5015343;27;103467;-63
2022/10/01 03:27:21;;;;;;;3.35;2.45;;;;;;;11.54;77.95;98296.41;5014778;27;103416;-64
2022/10/01 03:29:49;;;;;;;2.40;2.20;;;;;;;11.58;77.85;98302.28;5015603;27;103427;-64
2022/10/01 03:32:19;;;;;;;2.45;2.25;;;;;;;11.75;77.33;98293.81;5013985;27;104365;-64
2022/10/01 03:34:46;;;;;;;2.50;2.30;;;;;;;11.73;77.22;98300.22;4998965;27;105275;-63
2022/10/01 03:37:14;;;;;;;2.40;2.20;;;;;;;11.76;76.85;98295.47;4999043;27;104248;-64
2022/10/01 03:39:44;;;;;;;2.50;2.30;;;;;;;11.73;76.67;98303.72;4997934;27;103206;-63
2022/10/01 03:42:12;;;;;;;2.60;2.40;;;;;;;11.71;76.80;98289.75;4997529;27;104162;-63
2022/10/01 03:44:40;;;;;;;2.60;2.40;;;;;;;11.54;77.76;98295.56;4994265;27;104266;-63
2022/10/01 03:47:08;;;;;;;2.95;2.60;;;;;;;11.52;77.78;98289.56;5016420;27;103299;-63
2022/10/01 03:49:37;;;;;;;2.57;2.37;;;;;;;11.57;76.88;98284.72;5017167;27;102908;-63
2022/10/01 03:52:06;;;;;;;3.33;2.50;;;;;;;11.67;77.17;98280.38;4996954;27;104131;-63
2022/10/01 03:54:34;;;;;;;2.63;2.43;;;;;;;11.72;76.88;98275.56;4997098;27;104543;-63
2022/10/01 03:57:01;;;;;;;2.60;2.40;;;;;;;11.82;76.51;98279.09;5014686;27;103922;-63
2022/10/01 03:59:29;;;;;;;2.42;2.22;;;;;;;11.91;76.13;98270.41;5012712;27;103837;-63
2022/10/01 04:01:57;;;;;;;2.63;2.42;;;;;;;11.91;75.95;98261.59;5016899;27;103643;-63
2022/10/01 04:04:27;;;;;;;2.70;2.50;;;;;;;11.79;76.05;98265.31;5002691;27;104193;-63
2022/10/01 04:06:56;;;;;;;2.40;2.20;;;;;;;11.85;76.06;98270.91;5014469;27;104154;-63
2022/10/01 04:09:24;;;;;;;2.40;2.20;;;;;;;11.93;75.57;98271.09;5026337;27;103215;-63
2022/10/01 04:11:52;;;;;;;3.20;2.50;;;;;;;11.89;75.60;98263.56;4997883;27;102746;-63
2022/10/01 04:14:20;;;;;;;2.53;2.33;;;;;;;11.95;75.61;98257.75;5012775;27;104384;-63
2022/10/01 04:16:49;;;;;;;2.20;2.00;;;;;;;11.96;75.58;98262.06;5012427;27;103652;-63
2022/10/01 04:19:17;;;;;;;2.80;2.60;;;;;;;11.94;75.50;98251.59;5014725;27;103116;-63
2022/10/01 04:21:45;;;;;;;2.40;2.20;;;;;;;11.83;76.19;98261.41;5018225;27;103963;-63
2022/10/01 04:24:14;;;;;;;3.13;2.83;;;;;;;11.66;76.47;98265.44;5013364;27;104221;-63
2022/10/01 04:26:44;;;;;;;3.30;3.00;;;;;;;11.64;76.87;98260.28;5015779;27;103105;-63
2022/10/01 04:29:12;;;;;;;3.60;3.30;;;;;;;11.49;77.55;98268.66;5013041;27;102682;-63
2022/10/01 04:31:39;;;;;;;4.55;3.85;;;;;;;11.24;78.63;98255.75;5016410;27;104256;-63
2022/10/01 04:34:07;;;;;;;5.25;4.10;;;;;;;11.34;78.17;98256.72;5013176;27;103780;-63
2022/10/01 04:36:35;;;;;;;4.28;3.67;;;;;;;11.06;79.54;98250.16;5013339;27;103346;-63
2022/10/01 04:39:05;;;;;;;4.82;3.63;;;;;;;11.30;79.19;98249.97;5009394;27;102812;-63
2022/10/01 04:41:34;;;;;;;3.90;3.50;;;;;;;11.37;78.36;98248.50;5010861;27;103435;-63
2022/10/01 04:44:03;;;;;;;2.72;2.53;;;;;;;11.64;77.50;98248.88;4992586;27;104247;-65
2022/10/01 04:46:30;;;;;;;3.10;2.90;;;;;;;11.77;76.45;98246.91;5009037;27;103306;-63
2022/10/01 04:49:01;;;;;;;2.80;2.60;;;;;;;11.57;76.40;98245.03;5015057;27;104979;-63
2022/10/01 04:51:28;;;;;;;2.60;2.40;;;;;;;11.55;77.05;98244.34;5017392;27;104123;-63
2022/10/01 04:53:56;;;;;;;2.38;2.17;;;;;;;11.54;75.79;98250.59;5018766;28;103915;-63
2022/10/01 04:56:24;;;;;;;2.53;1.90;;;;;;;11.46;76.15;98245.94;5019961;28;103312;-63
2022/10/01 04:58:53;;;;;;;3.95;1.85;;;;;;;11.47;75.89;98249.44;5021251;27;102637;-63
2022/10/01 05:01:21;;;;;;;2.72;1.80;;;;;;;11.41;75.91;98250.78;5020932;27;103975;-64
2022/10/01 05:03:48;;;;;;;2.78;2.00;;;;;;;11.50;75.76;98254.47;5012689;27;104522;-64
2022/10/01 05:06:16;;;;;;;1.70;1.60;;;;;;;11.44;75.64;98249.69;5021320;27;104312;-64
2022/10/01 05:08:44;;;;;;;1.67;1.58;;;;;;;11.50;75.66;98233.31;5015167;27;102968;-64
2022/10/01 05:11:12;;;;;;;2.67;1.73;;;;;;;11.58;75.54;98244.94;4995347;27;104287;-64
2022/10/01 05:13:40;;;;;;;2.70;1.70;;;;;;;11.38;76.19;98247.53;4997676;27;104410;-63
2022/10/01 05:16:10;;;;;;;2.80;1.90;;;;;;;11.56;75.06;98243.38;5012350;27;103503;-64
2022/10/01 05:18:39;;;;;;;1.83;1.73;;;;;;;11.47;75.31;98247.63;5014083;27;102660;-62
2022/10/01 05:21:10;;;;;;;1.73;1.63;;;;;;;11.74;74.72;98244.50;5013077;27;103259;-61
2022/10/01 05:23:38;;;;;;;2.03;1.83;;;;;;;11.63;74.80;98252.47;4997559;27;104517;-62
2022/10/01 05:26:09;;;;;;;2.20;1.60;;;;;;;11.81;74.17;98245.69;5009909;27;103292;-61
2022/10/01 05:28:42;;;;;;;2.00;1.75;;;;;;;11.87;74.61;98239.88;4997765;28;102769;-61
2022/10/01 05:31:12;;;;;;;1.73;1.63;;;;;;;11.68;75.33;98233.59;4999504;28;104529;-61
2022/10/01 05:33:40;;;;;;;2.28;2.00;;;;;;;11.66;75.11;98231.06;5017338;28;103790;-61
2022/10/01 05:36:10;;;;;;;2.10;1.70;;;;;;;11.60;75.86;98227.13;5020264;27;103301;-62
2022/10/01 05:38:38;;;;;;;1.93;1.60;;;;;;;11.56;75.94;98230.97;5019424;28;102908;-62
2022/10/01 05:41:06;;;;;;;1.92;1.83;;;;;;;11.83;74.63;98243.75;5020962;27;104283;-61
2022/10/01 05:43:35;;;;;;;1.83;1.65;;;;;;;11.89;74.45;98237.09;5018034;28;103775;-61
2022/10/01 05:46:05;;;;;;;1.75;1.48;;;;;;;12.10;73.42;98241.38;5014942;27;103395;-62
2022/10/01 05:48:35;;;;;;;2.13;1.80;;;;;;;12.09;73.36;98237.06;5018348;27;102942;-62
2022/10/01 05:51:07;;;;;;;1.77;1.67;;;;;;;12.14;73.81;98232.22;5000396;28;103949;-61
2022/10/01 05:53:36;;;;;;;2.58;1.80;;;;;;;12.12;74.18;98230.69;4998432;28;104171;-62
2022/10/01 05:56:05;;;;;;;1.90;1.75;;;;;;;12.06;73.78;98221.44;5019401;28;103293;-62
2022/10/01 05:58:33;;;;;;;2.00;1.50;;;;;;;11.89;74.41;98211.47;5021491;27;102727;-63
2022/10/01 06:01:02;;;;;;;2.28;1.70;;;;;;;11.92;74.58;98215.66;5018223;27;104079;-65
2022/10/01 06:03:30;;;;;;;2.15;1.50;;;;;;;11.89;75.04;98206.16;5017227;28;103277;-63
2022/10/01 06:06:00;;;;;;;2.80;1.50;;;;;;;12.11;74.53;98205.16;5015211;28;103294;-62
2022/10/01 06:08:28;;;;;;;2.67;1.70;;;;;;;12.01;75.52;98189.22;5018716;28;103073;-62
2022/10/01 06:10:59;;;;;;;2.00;1.50;;;;;;;11.62;77.99;98187.31;5019652;27;103633;-62
2022/10/01 06:13:28;;;;;;;2.42;1.73;;;;;;;11.66;77.67;98183.41;5019641;28;103785;-62
2022/10/01 06:15:56;;;;;;;2.73;1.77;;;;;;;11.49;79.10;98184.00;5021557;27;103239;-62
2022/10/01 06:18:24;;;;;;;2.20;2.00;;;;;;;11.29;80.33;98182.19;5003966;28;102637;-62
2022/10/01 06:20:51;;;;;;;2.10;1.90;;;;;;;11.66;79.09;98183.41;5021643;27;102875;-62
2022/10/01 06:23:20;;;;;;;3.15;2.38;;;;;;;11.27;81.13;98170.91;5021614;28;104064;-62
2022/10/01 06:25:48;;;;;;;2.70;2.40;;;;;;;11.39;80.52;98177.81;5024021;28;103267;-62
2022/10/01 06:28:18;;;;;;;5.37;2.50;;;;;;;11.60;80.03;98174.19;5024056;27;102867;-62
2022/10/01 06:30:46;;;;;;;3.60;2.50;;;;;;;11.61;79.81;98175.03;5006013;27;103938;-63
2022/10/01 06:33:16;;;;;;;3.15;2.47;;;;;;;11.48;79.72;98163.81;5017605;28;103998;-63
2022/10/01 06:35:46;;;;;;;2.73;2.30;;;;;;;11.35;79.76;98171.94;5019710;27;104044;-62
2022/10/01 06:38:15;;;;;;;2.70;2.10;;;;;;;11.48;79.96;98174.41;5022891;28;102701;-62
2022/10/01 06:40:44;;;;;;;2.42;2.22;;;;;;;11.35;81.88;98173.75;5022920;27;104103;-62
2022/10/01 06:43:12;;;;;;;2.70;2.30;;;;;;;11.32;82.37;98171.34;5033876;27;104270;-63
2022/10/01 06:45:41;;;;;;;2.33;2.10;;;;;;;11.66;80.72;98170.19;5021022;28;103198;-62
2022/10/01 06:48:12;;;;;;;2.33;2.00;;;;;;;11.64;80.46;98174.78;5022186;27;102634;-63
2022/10/01 06:50:42;;;;;;;3.28;2.05;;;;;;;11.54;81.20;98174.72;5036566;27;104392;-63
2022/10/01 06:53:09;;;;;;;3.15;2.60;;;;;;;11.67;81.20;98177.16;5020754;28;103900;-63
2022/10/01 06:55:37;;;;;;;2.92;2.22;;;;;;;11.85;81.52;98172.97;5019458;28;103248;-63
2022/10/01 06:58:08;;;;;;;3.33;2.30;;;;;;;12.00;80.57;98176.97;5022099;27;102927;-62
2022/10/01 07:00:37;;;;;;;2.97;2.25;;;;;;;12.27;79.33;98183.50;5019723;28;102999;-63
2022/10/01 07:03:09;;;;;;;3.20;2.40;;;;;;;11.99;80.57;98190.31;5001777;28;104294;-63
2022/10/01 07:05:37;;;;;;;3.13;2.30;;;;;;;11.86;81.67;98179.97;5022581;27;103293;-63
2022/10/01 07:08:06;;;;;;;3.17;2.08;;;;;;;12.01;81.42;98180.47;5004594;27;103081;-63
2022/10/01 07:10:35;;;;;;;4.10;2.10;;;;;;;12.06;81.20;98179.09;5022340;27;103557;-63
2022/10/01 07:13:09;;;;;;;3.08;2.30;;;;;;;12.16;81.00;98182.59;5019981;28;104055;-62
2022/10/01 07:15:37;;;;;;;2.38;2.17;;;;;;;12.16;81.39;98174.66;5002296;28;104462;-68
2022/10/01 07:18:07;;;;;;;3.30;2.10;;;;;;;12.26;80.73;98165.91;5020424;27;102723;-69
2022/10/01 07:20:38;;;;;;;2.30;2.10;;;;;;;12.43;80.51;98175.88;5024897;27;102704;-69
2022/10/01 07:23:07;;;;;;;2.70;2.08;;;;;;;12.41;80.17;98172.50;5006831;28;103474;-69
2022/10/01 07:25:37;;;;;;;2.30;2.03;;;;;;;12.25;81.50;98172.19;5018933;27;103538;-68
2022/10/01 07:28:14;;;;;;;1.80;1.70;;;;;;;12.26;82.40;98166.78;5020349;27;102664;-69
2022/10/01 07:30:42;;;;;;;2.75;1.95;;;;;;;12.32;81.25;98176.84;5022891;28;103495;-69
2022/10/01 07:33:10;;;;;;;2.63;1.65;;;;;;;12.51;81.75;98176.03;5020671;28;103628;-68
2022/10/01 07:35:38;;;;;;;1.73;1.58;;;;;;;12.67;81.34;98155.16;5022822;27;104182;-69
2022/10/01 07:38:06;;;;;;;2.65;2.08;;;;;;;12.56;81.06;98155.28;5017874;28;102963;-66
2022/10/01 07:40:34;;;;;;;2.40;2.20;;;;;;;12.55;81.76;98162.38;5018922;27;103905;-66
2022/10/01 07:43:02;;;;;;;3.05;2.40;;;;;;;12.25;83.20;98158.94;5019553;27;104061;-66
2022/10/01 07:45:34;;;;;;;2.40;2.20;;;;;;;12.37;83.06;98161.38;5019021;27;103624;-66
2022/10/01 07:48:03;;;;;;;3.13;2.30;;;;;;;12.38;83.45;98163.03;5018930;27;104800;-66
2022/10/01 07:50:31;;;;;;;2.40;2.20;;;;;;;11.97;85.08;98164.00;5001092;28;104283;-66
2022/10/01 07:52:59;;;;;;;2.37;2.17;;;;;;;12.41;83.73;98159.25;5021975;27;104176;-66
2022/10/01 07:55:31;;;;;;;2.80;2.45;;;;;;;12.27;83.65;98162.31;5001751;28;104234;-66
2022/10/01 07:58:00;;;;;;;2.70;2.50;;;;;;;12.35;84.16;98171.22;5021466;27;102670;-66
2022/10/01 08:00:30;;;;;;;2.45;1.88;;;;;;;12.50;82.65;98174.34;5001511;28;102834;-67
2022/10/01 08:02:59;;;;;;;2.47;2.13;;;;;;;12.46;83.76;98178.25;5018485;27;103998;-67
2022/10/01 08:05:31;;;;;;;2.45;2.25;;;;;;;12.59;83.48;98168.25;5018324;27;103278;-67
2022/10/01 08:08:00;;;;;;;2.30;2.10;;;;;;;12.61;83.54;98164.47;5016495;27;104078;-67
2022/10/01 08:10:29;;;;;;;2.13;1.90;;;;;;;12.60;84.33;98164.63;5000922;28;102864;-67
2022/10/01 08:13:00;;;;;;;3.50;2.30;;;;;;;12.19;84.98;98161.16;5019855;27;103328;-66
2022/10/01 08:15:28;;;;;;;3.65;1.90;;;;;;;12.20;85.31;98162.84;5015864;28;103221;-67
2022/10/01 08:17:56;;;;;;;2.08;1.58;;;;;;;12.34;84.90;98168.72;5018551;28;102598;-67
2022/10/01 08:20:25;;;;;;;2.08;1.65;;;;;;;12.62;84.49;98175.94;5017322;28;103825;-67
2022/10/01 08:22:53;;;;;;;3.78;2.30;;;;;;;12.06;86.93;98180.88;5015022;28;104210;-66
2022/10/01 08:25:21;;;;;;;1.70;1.40;;;;;;;12.51;86.33;98181.34;4997066;28;104410;-67
2022/10/01 08:27:48;;;;;;;2.50;1.50;;;;;;;12.52;85.99;98185.69;4999966;28;102911;-66
2022/10/01 08:30:18;;;;;;;1.80;1.30;;;;;;;12.74;85.25;98177.50;4999715;28;104053;-67
2022/10/01 08:32:46;;;;;;;2.00;1.75;;;;;;;12.88;85.46;98185.06;4999987;28;104511;-66
2022/10/01 08:35:17;;;;;;;1.73;1.60;;;;;;;12.78;85.31;98192.13;5018665;27;103438;-67
2022/10/01 08:37:46;;;;;;;3.03;2.07;;;;;;;12.64;85.95;98201.31;5018324;27;103164;-67
2022/10/01 08:40:14;;;;;;;2.23;2.00;;;;;;;12.87;86.07;98187.81;5015229;28;103787;-67
2022/10/01 08:42:51;;;;;;;2.75;2.00;;;;;;;12.56;86.31;98189.72;5016365;27;103463;-68
2022/10/01 08:45:25;;;;;;;3.13;1.90;;;;;;;12.81;85.65;98194.50;5016697;28;104700;-69
2022/10/01 08:48:01;;;;;;;1.98;1.83;;;;;;;12.82;85.12;98190.91;5018064;27;102652;-68
2022/10/01 08:50:39;;;;;;;2.20;1.90;;;;;;;12.88;86.34;98198.31;5018419;27;102989;-67
2022/10/01 08:53:14;;;;;;;2.83;2.00;;;;;;;12.88;86.42;98194.81;5017445;28;104015;-67
2022/10/01 08:55:43;;;;;;;2.88;1.90;;;;;;;12.98;86.20;98191.19;5014977;28;103224;-66
2022/10/01 08:58:18;;;;;;;2.60;1.80;;;;;;;12.72;87.52;98201.47;5013760;28;103213;-66
2022/10/01 09:00:49;;;;;;;2.55;1.90;;;;;;;12.80;87.72;98190.19;4995008;28;104253;-70
2022/10/01 09:03:18;;;;;;;2.13;1.88;;;;;;;12.94;88.10;98189.78;4997624;27;103891;-69
2022/10/01 09:05:57;;;;;;;2.70;2.17;;;;;;;13.07;86.94;98195.72;5016820;27;103382;-68
2022/10/01 09:08:45;;;;;;;1.90;1.70;;;;;;;12.89;86.75;98194.66;5014022;27;102702;-69
2022/10/01 09:11:20;;;;;;;2.55;1.73;;;;;;;12.99;86.41;98203.50;5018514;27;103771;-67
2022/10/01 09:14:05;;;;;;;1.42;1.33;;;;;;;13.11;86.85;98198.91;5000399;28;104406;-66
2022/10/01 09:16:42;;;;;;;2.92;2.63;;;;;;;13.18;87.45;98200.88;5000096;28;104235;-67
2022/10/01 09:19:25;;;;;;;4.40;1.70;;;;;;;13.10;86.87;98194.59;5017622;28;102638;-66
2022/10/01 09:21:57;;;;;;;9.50;8.30;;;;;;;12.86;88.56;98196.75;5020489;27;103812;-67
2022/10/01 09:24:41;;;;;;;3.95;2.22;;;;;;;13.07;88.17;98200.13;5018393;27;104032;-68
2022/10/01 09:27:13;;;;;;;1.30;1.20;;;;;;;12.77;90.17;98198.44;5015061;28;103182;-67
2022/10/01 09:29:47;;;;;;;2.17;1.25;;;;;;;13.06;87.83;98180.72;5018049;27;103009;-67
2022/10/01 09:32:19;;;;;;;1.85;1.20;;;;;;;12.97;88.75;98176.25;5017821;27;104309;-67
2022/10/01 09:34:47;;;;;;;1.55;1.10;;;;;;;12.86;88.90;98181.69;5014328;27;104032;-67
2022/10/01 09:37:25;;;;;;;2.53;1.67;;;;;;;12.99;88.86;98190.22;5017546;28;103206;-67
2022/10/01 09:40:04;;;;;;;2.35;1.20;;;;;;;12.84;90.22;98194.25;5019584;27;102691;-68
2022/10/01 09:42:32;;;;;;;1.60;1.20;;;;;;;13.09;89.95;98188.44;5015856;28;102736;-68
2022/10/01 09:45:00;;;;;;;2.67;1.20;;;;;;;13.10;89.81;98195.44;5021182;27;104100;-69
2022/10/01 09:47:28;;;;;;;1.77;1.10;;;;;;;13.09;89.83;98209.66;4998177;27;103104;-68
2022/10/01 09:50:00;;;;;;;5.05;1.42;;;;;;;12.83;91.18;98202.34;5014780;28;102725;-67
2022/10/01 09:52:33;;;;;;;1.75;1.02;;;;;;;12.98;91.27;98204.44;5015602;28;102762;-68
2022/10/01 09:55:09;;;;;;;2.70;1.10;;;;;;;13.13;89.93;98208.41;5018395;27;104134;-68
2022/10/01 09:57:42;;;;;;;1.80;1.00;;;;;;;12.91;90.36;98210.44;4998610;28;105218;-66
2022/10/01 10:00:17;;;;;;;1.02;0.93;;;;;;;13.01;91.23;98206.84;5007137;27;102777;-66
2022/10/01 10:02:48;;;;;;;1.20;1.10;;;;;;;13.05;90.91;98210.88;5013691;28;104568;-66
2022/10/01 10:05:19;;;;;;;1.10;0.80;;;;;;;13.43;89.87;98212.75;5013763;28;103677;-66
2022/10/01 10:07:51;;;;;;;1.50;1.10;;;;;;;13.28;90.10;98214.97;5017484;27;103221;-66
2022/10/01 10:10:24;;;;;;;1.00;0.80;;;;;;;13.48;90.19;98213.16;5015941;27;103776;-66
2022/10/01 10:12:58;;;;;;;3.00;1.40;;;;;;;13.19;90.11;98205.19;5016277;27;102893;-66
2022/10/01 10:15:30;;;;;;;1.05;0.90;;;;;;;13.57;89.67;98214.13;4996241;28;103734;-66
2022/10/01 10:18:06;;;;;;;0.95;0.80;;;;;;;13.72;88.24;98207.41;4998969;28;103220;-66
2022/10/01 10:20:39;;;;;;;0.87;0.80;;;;;;;13.57;87.81;98207.00;4997848;28;102982;-66
2022/10/01 10:23:09;;;;;;;2.65;1.00;;;;;;;13.40;89.53;98212.19;5015871;27;104363;-66
2022/10/01 10:25:38;;;;;;;1.20;1.00;;;;;;;13.51;89.08;98204.06;5019375;27;103353;-66
2022/10/01 10:28:19;;;;;;;1.05;0.90;;;;;;;13.25;89.68;98183.41;5017349;28;103381;-66
2022/10/01 10:30:47;;;;;;;1.70;0.90;;;;;;;13.16;90.33;98199.34;5018202;27;103450;-65
2022/10/01 10:33:17;;;;;;;1.58;1.10;;;;;;;13.10;90.81;98187.47;5017473;28;103523;-65
2022/10/01 10:35:44;;;;;;;1.48;0.90;;;;;;;13.15;91.64;98182.59;5017639;27;103305;-65
2022/10/01 10:38:17;;;;;;;1.38;0.80;;;;;;;13.50;89.65;98194.47;5017723;28;103259;-66
2022/10/01 10:40:49;;;;;;;1.30;0.93;;;;;;;13.10;91.25;98190.13;5001242;28;102791;-66
2022/10/01 10:43:21;;;;;;;2.10;1.00;;;;;;;13.11;92.25;98196.25;5020006;27;102669;-66
2022/10/01 10:45:54;;;;;;;1.80;0.90;;;;;;;13.19;92.22;98199.88;5015053;27;104236;-66
2022/10/01 10:48:27;;;;;;;1.50;0.85;;;;;;;13.10;91.65;98190.13;5019700;27;103083;-66
2022/10/01 10:50:59;;;;;;;1.45;1.20;;;;;;;13.20;92.37;98183.00;5019347;27;104053;-66
2022/10/01 10:53:32;;;;;;;1.60;1.10;;;;;;;13.07;91.70;98184.22;5017804;28;103041;-66
2022/10/01 10:56:04;;;;;;;1.00;0.80;;;;;;;13.14;92.63;98188.84;5029726;27;104271;-66
2022/10/01 10:58:36;;;;;;;1.13;0.80;;;;;;;13.05;91.80;98181.69;4995655;28;103201;-66
2022/10/01 11:01:07;;;;;;;0.70;0.70;;;;;;;13.14;91.25;98170.28;5015815;28;102682;-66
2022/10/01 11:03:41;;;;;;;3.70;1.05;;;;;;;13.19;91.88;98176.00;5017022;27;104077;-66
2022/10/01 11:06:11;;;;;;;9.03;1.20;;;;;;;13.20;91.56;98174.19;5020786;28;103380;-66
2022/10/01 11:08:43;;;;;;;3.90;1.30;;;;;;;13.44;92.63;98171.97;5020210;27;103444;-66
2022/10/01 11:11:31;;;;;;;1.80;0.80;;;;;;;13.47;91.97;98177.00;5019843;27;102660;-66
2022/10/01 11:14:12;;;;;;;1.52;0.73;;;;;;;13.32;90.77;98173.94;5019407;28;103877;-66
2022/10/01 11:16:52;;;;;;;3.72;1.05;;;;;;;13.59;91.16;98170.53;5017086;27;103298;-66
2022/10/01 11:19:38;;;;;;;3.10;1.00;;;;;;;13.84;89.25;98163.78;5013963;28;103283;-67
2022/10/01 11:22:19;;;;;;;0.80;0.70;;;;;;;13.67;88.82;98167.19;5019741;27;102677;-66
2022/10/01 11:25:09;;;;;;;1.95;0.70;;;;;;;13.71;89.01;98179.19;5018071;27;103869;-66
2022/10/01 11:27:48;;;;;;;0.83;0.60;;;;;;;13.58;89.64;98171.53;4981368;28;103639;-66
2022/10/01 11:30:23;;;;;;;0.90;0.70;;;;;;;13.63;89.69;98171.09;5019372;27;104745;-65
2022/10/01 11:33:02;;;;;;;0.75;0.75;;;;;;;13.84;89.02;98179.72;5018689;27;102633;-66
2022/10/01 11:35:49;;;;;;;2.00;0.80;;;;;;;13.60;89.91;98176.69;5006945;27;103502;-66
2022/10/01 11:38:36;;;;;;;2.97;0.95;;;;;;;13.62;89.16;98186.19;5015637;27;103241;-66
2022/10/01 11:41:14;;;;;;;3.47;1.10;;;;;;;13.76;90.79;98179.59;4997099;28;104251;-65
2022/10/01 11:43:49;;;;;;;1.27;0.70;;;;;;;13.56;89.26;98181.44;4994692;28;103745;-66
2022/10/01 11:46:27;;;;;;;0.93;0.80;;;;;;;13.54;89.37;98195.84;5010282;28;104341;-65